Adel, Iowa
Current Conditions -  °F | °C
As of 8:15 AM on Friday 31 Oct 2014 (Local Time) from KPRO Reporting Station
Clear Clear  
Wind Chill: 18°   Ceiling: Unl
Heat Index: 28°   Visibility: 10mi
Dew Point: 21°   Wind: 10mph
Humidity: 75%   Direction: 350°N
Pressure: 30.49"   Gusts: NA
Location:  41.61°N, 94.02°W
Report Text: KPRO 311315Z AUTO 35009KT 10SM CLR M02/M06 A3049 RMK AO2 T10241062
Loading
Personal Weather Stations






























Interactive Weather Map
Tropical Storm Tracking
New forecast layout! Learn more

10-Day Weather Forecast

Advertisements
Track Severe Weather on mobile